createdAt,value
2018-12-01T00:01:10.136Z,55.49
2018-12-01T00:03:40.317Z,55.11
2018-12-01T00:06:10.929Z,55.66
2018-12-01T00:08:41.332Z,56.13
2018-12-01T00:11:11.420Z,55.97
2018-12-01T00:13:41.777Z,55.44
2018-12-01T00:16:12.237Z,56.40
2018-12-01T00:18:42.796Z,56.53
2018-12-01T00:21:13.230Z,55.97
2018-12-01T00:23:43.581Z,56.56
2018-12-01T00:26:13.966Z,56.50
2018-12-01T00:28:44.351Z,56.66
2018-12-01T00:31:14.467Z,56.31
2018-12-01T00:33:45.028Z,56.58
2018-12-01T00:36:15.549Z,56.41
2018-12-01T00:38:46.121Z,55.90
2018-12-01T00:41:16.486Z,55.96
2018-12-01T00:43:46.900Z,57.27
2018-12-01T00:46:17.128Z,57.62
2018-12-01T00:48:51.241Z,57.31
2018-12-01T00:51:21.516Z,57.70
2018-12-01T00:53:51.367Z,57.18
2018-12-01T00:56:21.168Z,57.97
2018-12-01T00:58:51.971Z,58.30
2018-12-01T01:01:21.795Z,58.11
2018-12-01T01:03:52.187Z,58.29
2018-12-01T01:06:21.933Z,59.74
2018-12-01T01:08:52.038Z,58.48
2018-12-01T01:11:21.853Z,59.32
2018-12-01T01:13:51.718Z,61.07
2018-12-01T01:16:21.637Z,61.67
2018-12-01T01:18:51.555Z,59.82
2018-12-01T01:21:21.907Z,59.68
2018-12-01T01:23:51.664Z,58.85
2018-12-01T01:26:21.517Z,59.50
2018-12-01T01:28:51.361Z,59.12
2018-12-01T01:31:21.524Z,59.31
2018-12-01T01:33:51.938Z,58.83
2018-12-01T01:36:22.108Z,59.04
2018-12-01T01:38:52.685Z,59.09
2018-12-01T01:41:22.981Z,59.10
2018-12-01T01:43:54.141Z,58.49
2018-12-01T01:46:24.471Z,59.00
2018-12-01T01:48:54.767Z,59.21
2018-12-01T01:51:24.622Z,59.78
2018-12-01T01:53:54.866Z,58.50
2018-12-01T01:56:24.684Z,58.64
2018-12-01T01:58:55.463Z,59.53
2018-12-01T02:01:25.509Z,58.74
2018-12-01T02:03:55.272Z,58.53
2018-12-01T02:06:25.107Z,58.50
2018-12-01T02:08:56.074Z,58.60
2018-12-01T02:11:25.988Z,58.01
2018-12-01T02:13:55.807Z,58.56
2018-12-01T02:16:25.814Z,58.00
2018-12-01T02:18:57.002Z,58.08
2018-12-01T02:21:27.985Z,57.53
2018-12-01T02:23:58.492Z,57.53
2018-12-01T02:26:28.737Z,56.88
2018-12-01T02:29:00.213Z,57.32
2018-12-01T02:31:30.676Z,57.59
2018-12-01T02:34:00.973Z,58.07
2018-12-01T02:36:31.261Z,57.75
2018-12-01T02:39:05.358Z,57.47
2018-12-01T02:41:35.584Z,57.05
2018-12-01T02:44:16.617Z,56.79
2018-12-01T02:47:23.786Z,55.69
2018-12-01T02:49:54.317Z,56.06
2018-12-01T02:52:24.590Z,56.03
2018-12-01T02:54:54.856Z,55.40
2018-12-01T02:57:25.444Z,55.59
2018-12-01T02:59:55.755Z,55.82
2018-12-01T03:02:26.345Z,54.08
2018-12-01T03:04:56.781Z,55.46
2018-12-01T03:07:27.472Z,55.21
2018-12-01T03:09:57.652Z,55.90
2018-12-01T03:12:27.982Z,54.66
2018-12-01T03:14:58.624Z,55.92
2018-12-01T03:17:29.423Z,56.53
2018-12-01T03:20:00.088Z,56.04
2018-12-01T03:22:30.513Z,57.63
2018-12-01T03:25:00.990Z,55.94
2018-12-01T03:27:35.701Z,57.39
2018-12-01T03:30:08.948Z,58.90
2018-12-01T03:32:39.807Z,58.54
2018-12-01T03:35:14.592Z,59.57
2018-12-01T03:37:46.889Z,58.43
2018-12-01T03:40:17.871Z,58.38
2018-12-01T03:42:48.015Z,59.07
2018-12-01T03:45:22.814Z,59.19
2018-12-01T03:47:53.676Z,59.75
2018-12-01T03:50:25.027Z,59.12
2018-12-01T03:52:56.443Z,59.12
2018-12-01T03:55:33.634Z,58.90
2018-12-01T03:58:05.495Z,58.91
2018-12-01T04:00:36.539Z,59.12
2018-12-01T04:03:07.952Z,60.52
2018-12-01T04:05:38.374Z,59.43
2018-12-01T04:08:09.590Z,59.12
2018-12-01T04:10:39.952Z,59.01
2018-12-01T04:13:10.256Z,59.34
2018-12-01T04:15:40.308Z,60.00
2018-12-01T04:18:11.137Z,60.08
2018-12-01T04:20:41.572Z,60.22
2018-12-01T04:23:12.069Z,59.38
2018-12-01T04:25:42.468Z,58.49
2018-12-01T04:28:12.676Z,58.26
2018-12-01T04:30:42.867Z,58.54
2018-12-01T04:33:13.268Z,58.62
2018-12-01T04:35:43.553Z,58.60
2018-12-01T04:38:15.144Z,57.89
2018-12-01T04:40:45.755Z,59.32
2018-12-01T04:43:16.343Z,58.16
2018-12-01T04:45:46.559Z,58.78
2018-12-01T04:48:20.024Z,59.00
2018-12-01T04:50:50.416Z,58.59
2018-12-01T04:53:20.824Z,58.08
2018-12-01T04:55:51.638Z,58.62
2018-12-01T04:58:22.367Z,59.33
2018-12-01T05:00:52.620Z,62.45
2018-12-01T05:03:23.430Z,63.25
2018-12-01T05:05:53.879Z,62.84
2018-12-01T05:08:24.482Z,61.03
2018-12-01T05:10:54.953Z,60.00
2018-12-01T05:13:25.229Z,60.38
2018-12-01T05:15:55.669Z,61.66
2018-12-01T05:18:26.792Z,62.49
2018-12-01T05:20:57.547Z,62.65
2018-12-01T05:23:28.267Z,62.12
2018-12-01T05:25:58.910Z,60.81
2018-12-01T05:28:29.716Z,59.08
2018-12-01T05:30:59.869Z,60.90
2018-12-01T05:33:30.132Z,61.63
2018-12-01T05:36:00.318Z,60.91
2018-12-01T05:38:31.621Z,60.23
2018-12-01T05:41:02.138Z,60.59
2018-12-01T05:43:32.323Z,60.41
2018-12-01T05:46:02.548Z,60.68
2018-12-01T05:48:33.975Z,60.82
2018-12-01T05:51:04.316Z,59.63
2018-12-01T05:53:34.589Z,61.37
2018-12-01T05:56:05.093Z,62.04
2018-12-01T05:58:35.800Z,61.67
2018-12-01T06:01:06.953Z,60.14
2018-12-01T06:03:37.766Z,60.47
2018-12-01T06:06:08.160Z,59.20
2018-12-01T06:08:38.611Z,59.41
2018-12-01T06:11:09.124Z,57.96
2018-12-01T06:13:39.561Z,56.60
2018-12-01T06:16:09.952Z,56.54
2018-12-01T06:18:40.936Z,57.74
2018-12-01T06:21:11.254Z,57.13
2018-12-01T06:23:41.909Z,55.76
2018-12-01T06:26:12.319Z,54.99
2018-12-01T06:28:43.372Z,54.40
2018-12-01T06:31:13.767Z,54.44
2018-12-01T06:33:44.282Z,53.93
2018-12-01T06:36:14.537Z,53.87
2018-12-01T06:38:45.269Z,53.54
2018-12-01T06:41:15.705Z,52.75
2018-12-01T06:43:46.014Z,52.18
2018-12-01T06:46:16.139Z,51.10
2018-12-01T06:48:46.622Z,51.65
2018-12-01T06:51:17.393Z,50.85
2018-12-01T06:53:47.783Z,51.20
2018-12-01T06:56:18.364Z,50.20
2018-12-01T06:58:48.921Z,49.32
2018-12-01T07:01:19.596Z,47.95
2018-12-01T07:03:50.257Z,48.13
2018-12-01T07:06:20.693Z,46.99
2018-12-01T07:08:51.670Z,45.98
2018-12-01T07:11:21.917Z,46.07
2018-12-01T07:13:52.392Z,45.21
2018-12-01T07:16:22.764Z,44.45
2018-12-01T07:19:19.769Z,44.12
2018-12-01T07:21:50.072Z,42.04
2018-12-01T07:24:20.836Z,41.51
2018-12-01T07:26:50.625Z,39.63
2018-12-01T07:29:20.548Z,39.23
2018-12-01T07:31:50.303Z,40.43
2018-12-01T07:34:20.060Z,38.74
2018-12-01T07:36:49.994Z,38.70
2018-12-01T07:39:19.780Z,38.62
2018-12-01T07:41:49.490Z,37.64
2018-12-01T07:44:20.531Z,36.90
2018-12-01T07:46:51.432Z,37.11
2018-12-01T07:49:21.186Z,34.63
2018-12-01T07:51:50.956Z,35.68
2018-12-01T07:54:20.805Z,34.84
2018-12-01T07:56:50.624Z,36.29
2018-12-01T07:59:20.572Z,35.75
2018-12-01T08:01:50.353Z,35.21
2018-12-01T08:04:20.320Z,35.05
2018-12-01T08:06:50.032Z,34.93
2018-12-01T08:09:19.719Z,35.80
2018-12-01T08:11:49.440Z,34.69
2018-12-01T08:14:19.310Z,32.92
2018-12-01T08:16:49.146Z,34.19
2018-12-01T08:19:19.004Z,36.31
2018-12-01T08:21:48.871Z,36.21
2018-12-01T08:24:18.979Z,37.19
2018-12-01T08:26:48.853Z,34.91
2018-12-01T08:29:18.681Z,35.08
2018-12-01T08:31:48.553Z,34.44
2018-12-01T08:34:18.449Z,33.06
2018-12-01T08:36:48.410Z,31.98
2018-12-01T08:39:18.265Z,31.31
2018-12-01T08:41:48.937Z,32.94
2018-12-01T08:44:18.755Z,30.33
2018-12-01T08:46:49.270Z,31.38
2018-12-01T08:49:19.065Z,32.70
2018-12-01T08:51:48.912Z,31.37
2018-12-01T08:54:18.937Z,31.12
2018-12-01T08:56:49.268Z,29.33
2018-12-01T08:59:19.866Z,30.43
2018-12-01T09:01:50.249Z,29.20
2018-12-01T09:04:20.748Z,29.61
2018-12-01T09:06:51.644Z,29.37
2018-12-01T09:09:22.212Z,27.88
2018-12-01T09:11:52.029Z,27.78
2018-12-01T09:14:21.897Z,27.64
2018-12-01T09:16:52.895Z,27.47
2018-12-01T09:19:22.620Z,27.29
2018-12-01T09:21:52.547Z,28.71
2018-12-01T09:24:22.509Z,30.11
2018-12-01T09:26:53.111Z,28.77
2018-12-01T09:29:23.006Z,28.92
2018-12-01T09:31:52.955Z,28.94
2018-12-01T09:34:22.837Z,29.81
2018-12-01T09:36:52.680Z,30.20
2018-12-01T09:39:22.476Z,30.95
2018-12-01T09:41:52.306Z,30.09
2018-12-01T09:44:22.061Z,30.12
2018-12-01T09:46:52.021Z,30.62
2018-12-01T09:49:21.989Z,32.39
2018-12-01T09:51:51.789Z,31.66
2018-12-01T09:54:21.568Z,31.71
2018-12-01T09:56:51.467Z,29.90
2018-12-01T09:59:21.298Z,29.89
2018-12-01T10:01:51.138Z,30.63
2018-12-01T10:04:21.057Z,30.01
2018-12-01T10:06:50.974Z,29.70
2018-12-01T10:09:20.930Z,28.71
2018-12-01T10:11:50.760Z,28.85
2018-12-01T10:14:20.501Z,29.57
2018-12-01T10:16:50.525Z,27.86
2018-12-01T10:19:20.489Z,28.50
2018-12-01T10:21:50.324Z,26.79
2018-12-01T10:24:20.108Z,25.70
2018-12-01T10:26:50.034Z,27.30
2018-12-01T10:29:20.005Z,28.75
2018-12-01T10:31:49.884Z,27.93
2018-12-01T10:34:19.591Z,25.26
2018-12-01T10:36:49.349Z,25.39
2018-12-01T10:39:19.403Z,25.02
2018-12-01T10:41:49.234Z,25.41
2018-12-01T10:44:19.053Z,24.32
2018-12-01T10:46:48.777Z,24.48
2018-12-01T10:49:18.654Z,24.29
2018-12-01T10:51:48.508Z,23.80
2018-12-01T10:54:18.309Z,23.09
2018-12-01T10:56:48.011Z,22.10
2018-12-01T10:59:17.986Z,22.54
2018-12-01T11:01:52.976Z,22.15
2018-12-01T11:04:27.766Z,22.04
2018-12-01T11:06:57.877Z,20.91
2018-12-01T11:09:28.084Z,22.19
2018-12-01T11:11:57.879Z,20.80
2018-12-01T11:14:27.739Z,20.21
2018-12-01T11:16:57.789Z,18.99
2018-12-01T11:19:27.711Z,21.60
2018-12-01T11:21:57.528Z,22.98
2018-12-01T11:24:27.320Z,22.54
2018-12-01T11:26:57.190Z,21.49
2018-12-01T11:29:27.151Z,21.55
2018-12-01T11:31:57.073Z,21.82
2018-12-01T11:34:26.957Z,21.51
2018-12-01T11:36:56.812Z,18.58
2018-12-01T11:39:26.503Z,19.43
2018-12-01T11:41:56.254Z,18.61
2018-12-01T11:44:26.261Z,19.92
2018-12-01T11:46:56.120Z,22.52
2018-12-01T11:49:26.032Z,20.93
2018-12-01T11:51:55.884Z,20.67
2018-12-01T11:54:25.683Z,21.31
2018-12-01T11:56:55.569Z,21.85
2018-12-01T11:59:25.561Z,20.55
2018-12-01T12:02:00.266Z,20.84
2018-12-01T12:04:25.645Z,21.09
2018-12-01T12:06:55.555Z,21.29
2018-12-01T12:09:25.522Z,20.79
2018-12-01T12:11:55.596Z,19.68
2018-12-01T12:14:25.583Z,21.34
2018-12-01T12:16:55.717Z,20.00
2018-12-01T12:19:25.591Z,21.71
2018-12-01T12:21:55.563Z,20.91
2018-12-01T12:24:25.393Z,22.58
2018-12-01T12:26:55.272Z,23.85
2018-12-01T12:29:25.203Z,22.42
2018-12-01T12:31:55.318Z,21.98
2018-12-01T12:34:25.273Z,21.53
2018-12-01T12:36:55.141Z,20.37
2018-12-01T12:39:25.015Z,21.31
2018-12-01T12:41:54.933Z,24.01
2018-12-01T12:44:24.884Z,21.35
2018-12-01T12:46:54.863Z,23.74
2018-12-01T12:49:24.669Z,25.43
2018-12-01T12:51:54.490Z,25.16
2018-12-01T12:54:24.384Z,25.29
2018-12-01T12:56:54.233Z,25.37
2018-12-01T12:59:24.177Z,24.92
2018-12-01T13:01:54.081Z,25.52
2018-12-01T13:04:24.113Z,26.40
2018-12-01T13:06:54.036Z,26.07
2018-12-01T13:09:23.963Z,25.61
2018-12-01T13:11:53.913Z,27.15
2018-12-01T13:14:24.196Z,27.74
2018-12-01T13:16:54.552Z,28.25
2018-12-01T13:19:24.417Z,28.75
2018-12-01T13:21:54.210Z,28.64
2018-12-01T13:24:24.224Z,29.07
2018-12-01T13:26:54.117Z,28.95
2018-12-01T13:29:23.965Z,25.96
2018-12-01T13:31:54.970Z,27.35
2018-12-01T13:34:24.876Z,27.94
2018-12-01T13:36:55.205Z,26.84
2018-12-01T13:39:25.045Z,26.87
2018-12-01T13:41:54.864Z,27.29
2018-12-01T13:44:24.745Z,29.19
2018-12-01T13:46:54.353Z,29.25
2018-12-01T13:49:24.141Z,29.59
2018-12-01T13:51:54.110Z,29.64
2018-12-01T13:54:23.759Z,30.04
2018-12-01T13:56:53.676Z,30.04
2018-12-01T13:59:23.606Z,31.47
2018-12-01T14:01:53.317Z,33.57
2018-12-01T14:04:23.111Z,34.24
2018-12-01T14:06:52.955Z,34.10
2018-12-01T14:09:22.834Z,34.82
2018-12-01T14:11:53.157Z,35.69
2018-12-01T14:14:22.998Z,35.28
2018-12-01T14:16:52.801Z,34.87
2018-12-01T14:19:22.773Z,36.24
2018-12-01T14:21:52.573Z,37.34
2018-12-01T14:24:22.422Z,39.27
2018-12-01T14:26:52.368Z,39.93
2018-12-01T14:29:22.203Z,40.52
2018-12-01T14:31:52.094Z,40.68
2018-12-01T14:34:21.923Z,41.63
2018-12-01T14:36:51.794Z,42.49
2018-12-01T14:39:21.740Z,41.42
2018-12-01T14:41:51.525Z,41.57
2018-12-01T14:44:21.335Z,43.56
2018-12-01T14:46:51.285Z,43.62
2018-12-01T14:49:21.081Z,41.78
2018-12-01T14:51:51.004Z,42.10
2018-12-01T14:54:20.928Z,41.15
2018-12-01T14:56:50.854Z,41.17
2018-12-01T14:59:20.716Z,42.46
2018-12-01T15:01:50.597Z,43.30
2018-12-01T15:04:20.351Z,43.79
2018-12-01T15:06:50.189Z,42.89
2018-12-01T15:09:19.960Z,45.09
2018-12-01T15:11:49.823Z,44.37
2018-12-01T15:14:19.703Z,44.64
2018-12-01T15:16:49.531Z,46.89
2018-12-01T15:19:19.783Z,48.15
2018-12-01T15:21:50.527Z,49.53
2018-12-01T15:24:19.648Z,48.08
2018-12-01T15:26:50.038Z,47.21
2018-12-01T15:29:19.869Z,47.69
2018-12-01T15:31:49.794Z,46.90
2018-12-01T15:34:19.682Z,46.53
2018-12-01T15:36:49.790Z,46.97
2018-12-01T15:39:29.447Z,46.42
2018-12-01T15:41:59.313Z,46.99
2018-12-01T15:44:29.164Z,48.28
2018-12-01T15:46:59.281Z,48.37
2018-12-01T15:49:28.950Z,49.74
2018-12-01T15:51:58.877Z,50.93
2018-12-01T15:54:28.909Z,48.82
2018-12-01T15:56:58.841Z,49.03
2018-12-01T15:59:28.763Z,47.58
2018-12-01T16:01:58.619Z,48.06
2018-12-01T16:04:28.501Z,46.81
2018-12-01T16:06:58.362Z,47.79
2018-12-01T16:09:28.337Z,47.16
2018-12-01T16:11:58.152Z,46.59
2018-12-01T16:14:28.082Z,48.99
2018-12-01T16:16:57.887Z,48.07
2018-12-01T16:19:27.832Z,48.48
2018-12-01T16:21:57.741Z,49.21
2018-12-01T16:24:27.589Z,48.48
2018-12-01T16:26:57.482Z,49.73
2018-12-01T16:29:27.353Z,51.72
2018-12-01T16:31:57.229Z,50.88
2018-12-01T16:34:26.999Z,50.92
2018-12-01T16:36:56.944Z,50.44
2018-12-01T16:39:26.807Z,49.80
2018-12-01T16:41:56.724Z,49.36
2018-12-01T16:44:26.625Z,49.03
2018-12-01T16:46:56.567Z,48.63
2018-12-01T16:49:26.479Z,50.30
2018-12-01T16:51:56.409Z,47.91
2018-12-01T16:54:26.280Z,48.50
2018-12-01T16:56:56.165Z,50.21
2018-12-01T16:59:26.127Z,50.43
2018-12-01T17:01:56.025Z,51.10
2018-12-01T17:04:25.924Z,49.77
2018-12-01T17:06:55.661Z,50.30
2018-12-01T17:09:25.529Z,50.95
2018-12-01T17:11:55.471Z,52.88
2018-12-01T17:14:25.332Z,51.06
2018-12-01T17:16:55.191Z,51.42
2018-12-01T17:19:25.146Z,50.24
2018-12-01T17:21:55.296Z,50.59
2018-12-01T17:24:25.160Z,51.36
2018-12-01T17:26:54.941Z,52.36
2018-12-01T17:29:24.879Z,52.22
2018-12-01T17:31:54.618Z,51.14
2018-12-01T17:34:24.316Z,51.72
2018-12-01T17:36:54.218Z,52.01
2018-12-01T17:39:24.010Z,51.83
2018-12-01T17:41:53.798Z,51.83
2018-12-01T17:44:23.630Z,50.90
2018-12-01T17:46:53.628Z,51.07
2018-12-01T17:49:23.492Z,51.24
2018-12-01T17:51:53.519Z,51.64
2018-12-01T17:54:23.425Z,51.85
2018-12-01T17:56:53.230Z,50.92
2018-12-01T17:59:23.137Z,50.89
2018-12-01T18:01:53.016Z,51.07
2018-12-01T18:04:22.933Z,50.92
2018-12-01T18:06:52.888Z,50.34
2018-12-01T18:09:22.762Z,50.51
2018-12-01T18:11:52.659Z,51.25
2018-12-01T18:14:22.296Z,50.51
2018-12-01T18:16:52.120Z,50.24
2018-12-01T18:19:22.041Z,50.86
2018-12-01T18:21:51.916Z,50.83
2018-12-01T18:24:21.819Z,50.26
2018-12-01T18:26:51.712Z,50.28
2018-12-01T18:29:21.403Z,50.49
2018-12-01T18:31:51.099Z,51.09
2018-12-01T18:34:21.000Z,50.47
2018-12-01T18:36:50.940Z,51.05
2018-12-01T18:39:21.193Z,51.03
2018-12-01T18:41:51.014Z,50.17
2018-12-01T18:44:20.917Z,50.23
2018-12-01T18:46:50.739Z,50.72
2018-12-01T18:49:20.681Z,50.90
2018-12-01T18:51:50.485Z,51.00
2018-12-01T18:54:20.383Z,52.57
2018-12-01T18:56:50.295Z,51.48
2018-12-01T18:59:20.103Z,51.38
2018-12-01T19:01:52.332Z,51.13
2018-12-01T19:04:22.105Z,51.22
2018-12-01T19:06:53.021Z,51.25
2018-12-01T19:09:22.858Z,54.07
2018-12-01T19:11:52.722Z,54.61
2018-12-01T19:14:22.458Z,53.10
2018-12-01T19:16:52.357Z,52.42
2018-12-01T19:19:22.158Z,51.95
2018-12-01T19:21:51.943Z,51.45
2018-12-01T19:24:21.676Z,51.70
2018-12-01T19:26:51.860Z,51.03
2018-12-01T19:29:21.660Z,51.71
2018-12-01T19:31:51.481Z,51.38
2018-12-01T19:34:21.249Z,51.25
2018-12-01T19:36:51.025Z,51.08
2018-12-01T19:39:20.862Z,51.70
2018-12-01T19:41:50.504Z,51.46
2018-12-01T19:44:20.294Z,52.02
2018-12-01T19:46:50.138Z,50.58
2018-12-01T19:49:19.895Z,51.58
2018-12-01T19:51:49.772Z,51.65
2018-12-01T19:54:19.608Z,51.25
2018-12-01T19:56:49.456Z,51.67
2018-12-01T19:59:19.357Z,52.39
2018-12-01T20:01:49.140Z,52.14
2018-12-01T20:04:19.066Z,52.29
2018-12-01T20:06:48.853Z,52.76
2018-12-01T20:09:18.680Z,52.87
2018-12-01T20:11:48.409Z,52.25
2018-12-01T20:14:19.199Z,52.03
2018-12-01T20:16:52.453Z,52.76
2018-12-01T20:19:22.293Z,52.21
2018-12-01T20:21:52.100Z,51.96
2018-12-01T20:24:21.813Z,52.03
2018-12-01T20:26:51.702Z,52.64
2018-12-01T20:29:21.872Z,51.40
2018-12-01T20:31:52.082Z,51.61
2018-12-01T20:34:22.677Z,52.97
2018-12-01T20:36:56.210Z,54.00
2018-12-01T20:39:32.005Z,54.33
2018-12-01T20:42:01.830Z,54.40
2018-12-01T20:44:31.838Z,55.88
2018-12-01T20:47:02.195Z,55.00
2018-12-01T20:49:31.880Z,53.42
2018-12-01T20:52:01.684Z,53.39
2018-12-01T20:54:35.728Z,54.87
2018-12-01T20:57:09.407Z,53.75
2018-12-01T20:59:39.232Z,53.04
2018-12-01T21:02:09.147Z,53.28
2018-12-01T21:04:39.014Z,53.54
2018-12-01T21:07:08.986Z,53.35
2018-12-01T21:09:38.876Z,53.92
2018-12-01T21:12:09.888Z,53.67
2018-12-01T21:14:39.783Z,53.37
2018-12-01T21:17:10.232Z,53.60
2018-12-01T21:19:40.215Z,52.81
2018-12-01T21:22:10.496Z,52.56
2018-12-01T21:24:40.286Z,52.64
2018-12-01T21:27:10.881Z,52.53
2018-12-01T21:29:40.866Z,53.44
2018-12-01T21:32:10.785Z,53.02
2018-12-01T21:34:40.607Z,53.28
2018-12-01T21:37:11.019Z,53.50
2018-12-01T21:39:40.886Z,53.17
2018-12-01T21:42:10.409Z,53.15
2018-12-01T21:44:40.268Z,55.80
2018-12-01T21:47:10.683Z,56.16
2018-12-01T21:49:41.284Z,55.49
2018-12-01T21:52:11.910Z,55.27
2018-12-01T21:54:42.386Z,54.04
2018-12-01T21:57:13.623Z,53.09
2018-12-01T21:59:43.803Z,53.29
2018-12-01T22:02:14.201Z,53.09
2018-12-01T22:04:44.812Z,53.51
2018-12-01T22:07:15.629Z,54.68
2018-12-01T22:09:46.294Z,56.57
2018-12-01T22:12:16.896Z,56.35
2018-12-01T22:14:47.469Z,57.07
2018-12-01T22:17:18.529Z,58.78
2018-12-01T22:19:48.810Z,59.56
2018-12-01T22:22:19.048Z,60.00
2018-12-01T22:24:49.554Z,60.18
2018-12-01T22:27:20.160Z,59.94
2018-12-01T22:29:50.914Z,57.90
2018-12-01T22:32:21.115Z,57.10
2018-12-01T22:34:51.177Z,57.42
2018-12-01T22:37:21.923Z,56.58
2018-12-01T22:39:52.342Z,56.83
2018-12-01T22:42:22.814Z,57.27
2018-12-01T22:44:53.170Z,57.59
2018-12-01T22:47:24.958Z,57.83
2018-12-01T22:49:55.164Z,57.85
2018-12-01T22:52:25.578Z,57.74
2018-12-01T22:54:55.806Z,57.95
2018-12-01T22:57:27.240Z,58.24
2018-12-01T22:59:57.466Z,57.71
2018-12-01T23:02:27.998Z,57.39
2018-12-01T23:04:58.446Z,56.75
2018-12-01T23:07:29.444Z,56.81
2018-12-01T23:09:59.988Z,56.12
2018-12-01T23:12:29.895Z,56.62
2018-12-01T23:15:00.304Z,56.96
2018-12-01T23:17:30.974Z,56.18
2018-12-01T23:20:01.050Z,57.53
2018-12-01T23:22:31.335Z,56.24
2018-12-01T23:25:01.877Z,56.45
2018-12-01T23:27:32.552Z,56.68
2018-12-01T23:30:03.446Z,57.24
2018-12-01T23:32:34.028Z,56.60
2018-12-01T23:35:04.451Z,57.07
2018-12-01T23:37:36.312Z,56.69
2018-12-01T23:40:07.829Z,56.45
2018-12-01T23:42:38.186Z,56.95
2018-12-01T23:45:15.285Z,56.74
2018-12-01T23:47:46.490Z,56.75
2018-12-01T23:50:22.778Z,57.04
2018-12-01T23:52:57.184Z,57.19
2018-12-01T23:55:27.666Z,58.15
2018-12-01T23:57:58.657Z,58.01
